createdAt,value
2022-10-15T00:02:19.208Z,100474.47
2022-10-15T00:07:22.103Z,100474.34
2022-10-15T00:12:25.087Z,100463.63
2022-10-15T00:17:29.281Z,100458.22
2022-10-15T00:22:32.010Z,100458.97
2022-10-15T00:27:35.204Z,100456.28
2022-10-15T00:32:39.573Z,100458.81
2022-10-15T00:37:44.044Z,100462.31
2022-10-15T00:42:47.002Z,100452.56
2022-10-15T00:47:53.165Z,100444.72
2022-10-15T00:53:03.408Z,100438.66
2022-10-15T00:58:09.046Z,100427.97
2022-10-15T01:03:13.374Z,100425.34
2022-10-15T01:08:16.173Z,100413.94
2022-10-15T01:13:32.735Z,100402.47
2022-10-15T01:18:42.734Z,100399.72
2022-10-15T01:24:31.571Z,100390.03
2022-10-15T01:29:57.728Z,100386.28
2022-10-15T01:35:10.715Z,100384.31
2022-10-15T01:40:19.691Z,100383.28
2022-10-15T01:45:27.432Z,100373.50
2022-10-15T01:50:34.403Z,100371.66
2022-10-15T01:55:38.743Z,100362.69
2022-10-15T02:00:44.063Z,100357.19
2022-10-15T02:05:53.854Z,100355.25
2022-10-15T02:11:01.498Z,100351.66
2022-10-15T02:16:12.906Z,100353.41
2022-10-15T02:21:21.340Z,100345.69
2022-10-15T02:26:26.831Z,100350.22
2022-10-15T02:31:32.860Z,100354.78
2022-10-15T02:36:40.040Z,100349.53
2022-10-15T02:41:43.067Z,100344.28
2022-10-15T02:46:45.882Z,100337.28
2022-10-15T02:51:49.964Z,100326.69
2022-10-15T02:56:52.650Z,100326.63
2022-10-15T03:01:55.366Z,100327.47
2022-10-15T03:06:59.605Z,100331.03
2022-10-15T03:12:02.335Z,100323.94
2022-10-15T03:17:05.066Z,100325.75
2022-10-15T03:22:09.115Z,100316.91
2022-10-15T03:27:11.889Z,100320.50
2022-10-15T03:32:14.592Z,100307.28
2022-10-15T03:37:18.799Z,100304.66
2022-10-15T03:42:21.917Z,100292.19
2022-10-15T03:47:24.883Z,100305.38
2022-10-15T03:52:28.982Z,100307.19
2022-10-15T03:57:31.675Z,100301.13
2022-10-15T04:02:34.650Z,100293.28
2022-10-15T04:07:38.723Z,100301.31
2022-10-15T04:12:41.386Z,100309.22
2022-10-15T04:17:44.090Z,100311.13
2022-10-15T04:22:48.170Z,100311.19
2022-10-15T04:27:50.882Z,100318.34
2022-10-15T04:32:53.652Z,100321.94
2022-10-15T04:37:59.974Z,100326.34
2022-10-15T04:43:02.666Z,100328.00
2022-10-15T04:48:05.715Z,100335.94
2022-10-15T04:53:09.805Z,100320.13
2022-10-15T04:58:12.664Z,100328.97
2022-10-15T05:03:15.373Z,100331.63
2022-10-15T05:08:19.429Z,100333.44
2022-10-15T05:13:22.231Z,100325.63
2022-10-15T05:18:25.160Z,100323.13
2022-10-15T05:23:29.433Z,100319.66
2022-10-15T05:28:32.432Z,100320.53
2022-10-15T05:33:35.278Z,100331.16
2022-10-15T05:38:39.531Z,100334.72
2022-10-15T05:43:42.420Z,100332.97
2022-10-15T05:48:48.920Z,100332.03
2022-10-15T05:53:54.791Z,100342.56
2022-10-15T05:58:58.863Z,100341.78
2022-10-15T06:04:01.594Z,100347.06
2022-10-15T06:09:05.647Z,100352.25
2022-10-15T06:14:08.324Z,100358.41
2022-10-15T06:19:11.086Z,100363.69
2022-10-15T06:24:15.157Z,100370.78
2022-10-15T06:29:17.893Z,100372.44
2022-10-15T06:34:20.602Z,100380.34
2022-10-15T06:39:24.646Z,100379.56
2022-10-15T06:44:27.629Z,100382.25
2022-10-15T06:49:30.336Z,100385.91
2022-10-15T06:54:34.443Z,100398.41
2022-10-15T06:59:40.439Z,100401.16
2022-10-15T07:04:44.666Z,100408.41
2022-10-15T07:09:53.063Z,100409.41
2022-10-15T07:14:55.902Z,100408.66
2022-10-15T07:19:58.603Z,100420.34
2022-10-15T07:25:02.737Z,100417.91
2022-10-15T07:30:07.041Z,100430.47
2022-10-15T07:35:10.332Z,100428.88
2022-10-15T07:40:14.842Z,100437.78
2022-10-15T07:45:17.631Z,100428.03
2022-10-15T07:50:20.645Z,100436.28
2022-10-15T07:55:24.689Z,100440.03
2022-10-15T08:00:27.577Z,100440.88
2022-10-15T08:05:30.335Z,100442.59
2022-10-15T08:10:34.696Z,100443.56
2022-10-15T08:15:40.144Z,100452.59
2022-10-15T08:20:43.171Z,100451.09
2022-10-15T08:25:47.222Z,100453.03
2022-10-15T08:30:49.971Z,100454.06
2022-10-15T08:35:53.701Z,100456.97
2022-10-15T08:41:00.365Z,100454.53
2022-10-15T08:46:07.478Z,100461.69
2022-10-15T08:51:14.749Z,100456.50
2022-10-15T08:56:23.135Z,100462.06
2022-10-15T09:01:30.513Z,100460.53
2022-10-15T09:06:36.956Z,100477.56
2022-10-15T09:11:54.515Z,100474.97
2022-10-15T09:16:57.218Z,100483.97
2022-10-15T09:22:02.331Z,100497.34
2022-10-15T09:27:11.339Z,100500.97
2022-10-15T09:32:20.315Z,100496.63
2022-10-15T09:37:28.963Z,100496.66
2022-10-15T09:42:37.043Z,100509.94
2022-10-15T09:47:42.808Z,100515.38
2022-10-15T09:53:04.928Z,100515.41
2022-10-15T09:58:16.342Z,100525.22
2022-10-15T10:03:19.163Z,100520.78
2022-10-15T10:08:23.960Z,100527.94
2022-10-15T10:13:31.153Z,100531.66
2022-10-15T10:18:34.266Z,100534.41
2022-10-15T10:23:39.412Z,100531.88
2022-10-15T10:28:56.495Z,100540.69
2022-10-15T10:34:03.151Z,100542.44
2022-10-15T10:39:18.861Z,100528.47
2022-10-15T10:44:30.996Z,100518.41
2022-10-15T10:49:35.609Z,100518.88
2022-10-15T10:54:38.622Z,100513.22
2022-10-15T10:59:49.317Z,100513.38
2022-10-15T11:04:52.097Z,100507.34
2022-10-15T11:10:01.663Z,100504.03
2022-10-15T11:15:21.471Z,100492.84
2022-10-15T11:20:51.053Z,100501.13
2022-10-15T11:26:02.396Z,100493.53
2022-10-15T11:31:15.497Z,100507.81
2022-10-15T11:36:37.230Z,100502.75
2022-10-15T11:41:47.662Z,100498.44
2022-10-15T11:47:06.906Z,100491.56
2022-10-15T11:52:25.877Z,100483.09
2022-10-15T11:57:32.211Z,100486.69
2022-10-15T12:02:39.327Z,100489.44
2022-10-15T12:07:44.460Z,100493.22
2022-10-15T12:12:54.736Z,100481.88
2022-10-15T12:18:05.607Z,100476.84
2022-10-15T12:23:24.242Z,100476.22
2022-10-15T12:28:30.218Z,100477.28
2022-10-15T12:33:37.720Z,100472.19
2022-10-15T12:38:42.306Z,100467.88
2022-10-15T12:44:05.355Z,100463.53
2022-10-15T12:49:40.519Z,100458.22
2022-10-15T12:54:46.274Z,100449.41
2022-10-15T12:59:58.199Z,100457.47
2022-10-15T13:05:01.195Z,100450.38
2022-10-15T13:10:06.751Z,100444.28
2022-10-15T13:15:17.137Z,100437.31
2022-10-15T13:20:34.453Z,100432.91
2022-10-15T13:25:38.668Z,100412.47
2022-10-15T13:30:49.573Z,100424.00
2022-10-15T13:35:52.518Z,100415.09
2022-10-15T13:40:57.251Z,100421.22
2022-10-15T13:46:02.055Z,100417.69
2022-10-15T13:51:06.651Z,100434.59
2022-10-15T13:56:24.789Z,100421.22
2022-10-15T14:01:29.091Z,100430.94
2022-10-15T14:06:33.539Z,100431.66
2022-10-15T14:11:39.482Z,100430.78
2022-10-15T14:16:48.077Z,100438.84
2022-10-15T14:21:52.362Z,100442.34
2022-10-15T14:26:56.605Z,100439.59
2022-10-15T14:31:59.410Z,100440.34
2022-10-15T14:37:02.914Z,100440.06
2022-10-15T14:42:26.852Z,100441.53
2022-10-15T14:47:32.608Z,100445.72
2022-10-15T14:52:38.258Z,100450.03
2022-10-15T14:57:45.742Z,100434.78
2022-10-15T15:02:49.144Z,100435.56
2022-10-15T15:07:52.681Z,100439.06
2022-10-15T15:12:58.546Z,100445.16
2022-10-15T15:18:01.433Z,100451.25
2022-10-15T15:23:04.749Z,100443.94
2022-10-15T15:28:14.489Z,100461.38
2022-10-15T15:33:17.453Z,100445.22
2022-10-15T15:38:21.612Z,100445.03
2022-10-15T15:43:25.957Z,100444.84
2022-10-15T15:48:28.778Z,100439.31
2022-10-15T15:53:31.997Z,100436.44
2022-10-15T15:58:36.341Z,100444.16
2022-10-15T16:03:39.884Z,100456.31
2022-10-15T16:08:42.877Z,100454.31
2022-10-15T16:13:47.218Z,100452.25
2022-10-15T16:18:49.980Z,100456.44
2022-10-15T16:23:52.969Z,100454.44
2022-10-15T16:28:57.429Z,100448.78
2022-10-15T16:34:00.376Z,100464.44
2022-10-15T16:39:03.972Z,100455.34
2022-10-15T16:44:08.436Z,100466.59
2022-10-15T16:49:11.229Z,100466.22
2022-10-15T16:54:15.473Z,100465.06
2022-10-15T16:59:20.296Z,100456.94
2022-10-15T17:04:23.066Z,100462.06
2022-10-15T17:09:25.790Z,100465.41
2022-10-15T17:14:29.940Z,100463.41
2022-10-15T17:19:34.216Z,100464.97
2022-10-15T17:24:37.141Z,100476.31
2022-10-15T17:29:41.238Z,100476.22
2022-10-15T17:34:44.042Z,100472.59
2022-10-15T17:39:46.870Z,100475.28
2022-10-15T17:44:51.018Z,100478.91
2022-10-15T17:49:53.701Z,100474.56
2022-10-15T17:54:56.394Z,100474.56
2022-10-15T18:00:00.493Z,100471.88
2022-10-15T18:05:03.324Z,100467.38
2022-10-15T18:10:09.157Z,100463.78
2022-10-15T18:15:13.992Z,100463.66
2022-10-15T18:20:16.783Z,100471.56
2022-10-15T18:25:19.508Z,100460.97
2022-10-15T18:30:23.582Z,100461.06
2022-10-15T18:35:26.293Z,100459.31
2022-10-15T18:40:29.045Z,100457.50
2022-10-15T18:45:33.203Z,100462.06
2022-10-15T18:50:36.149Z,100454.03
2022-10-15T18:55:39.148Z,100456.72
2022-10-15T19:00:43.203Z,100455.78
2022-10-15T19:05:48.291Z,100447.84
2022-10-15T19:10:51.032Z,100455.78
2022-10-15T19:15:55.153Z,100457.56
2022-10-15T19:20:57.937Z,100457.59
2022-10-15T19:26:00.720Z,100462.91
2022-10-15T19:31:07.706Z,100471.69
2022-10-15T19:36:10.502Z,100471.66
2022-10-15T19:41:13.305Z,100461.88
2022-10-15T19:46:17.650Z,100468.97
2022-10-15T19:51:20.351Z,100471.59
2022-10-15T19:56:23.890Z,100476.03
2022-10-15T20:01:29.326Z,100482.28
2022-10-15T20:06:32.116Z,100507.09
2022-10-15T20:11:35.082Z,100498.31
2022-10-15T20:16:39.152Z,100498.47
2022-10-15T20:21:41.911Z,100497.63
2022-10-15T20:26:44.678Z,100496.81
2022-10-15T20:31:51.253Z,100496.94
2022-10-15T20:36:54.285Z,100494.31
2022-10-15T20:41:57.300Z,100502.31
2022-10-15T20:47:05.928Z,100508.47
2022-10-15T20:52:09.555Z,100519.78
2022-10-15T20:57:12.642Z,100525.84
2022-10-15T21:02:16.718Z,100530.31
2022-10-15T21:12:22.491Z,100542.59
2022-10-15T21:17:27.253Z,100538.22
2022-10-15T21:22:30.251Z,100534.66
2022-10-15T21:27:32.996Z,100537.31
2022-10-15T21:32:37.076Z,100537.25
2022-10-15T21:37:39.967Z,100555.72
2022-10-15T21:42:42.921Z,100564.56
2022-10-15T21:47:47.010Z,100566.28
2022-10-15T21:52:49.787Z,100573.44
2022-10-15T21:57:52.620Z,100591.03
2022-10-15T22:02:56.713Z,100593.63
2022-10-15T22:07:59.480Z,100590.09
2022-10-15T22:13:02.275Z,100590.94
2022-10-15T22:18:06.425Z,100591.81
2022-10-15T22:23:09.106Z,100587.38
2022-10-15T22:28:11.790Z,100590.94
2022-10-15T22:33:15.857Z,100598.00
2022-10-15T22:38:18.555Z,100604.22
2022-10-15T22:43:21.293Z,100612.13
2022-10-15T22:48:25.363Z,100595.38
2022-10-15T22:53:28.744Z,100607.72
2022-10-15T22:58:32.969Z,100611.16
2022-10-15T23:03:37.100Z,100611.28
2022-10-15T23:08:40.127Z,100608.59
2022-10-15T23:13:44.284Z,100612.88
2022-10-15T23:18:52.930Z,100619.00
2022-10-15T23:23:56.215Z,100620.78
2022-10-15T23:29:00.915Z,100617.19
2022-10-15T23:34:06.323Z,100618.00
2022-10-15T23:39:09.585Z,100622.28
2022-10-15T23:44:12.751Z,100631.75
2022-10-15T23:49:17.907Z,100640.41
2022-10-15T23:54:20.610Z,100631.34
2022-10-15T23:59:23.545Z,100635.72
